sensor_id;sensor_type;location;lat;lon;timestamp;pressure;altitude;pressure_sealevel;temperature;humidity
70684;BME280;58263;48.146;11.440;2023-07-28T00:00:02;95117.22;;;16.38;74.13
70684;BME280;58263;48.146;11.440;2023-07-28T00:02:27;95120.59;;;16.19;74.72
70684;BME280;58263;48.146;11.440;2023-07-28T00:04:52;95116.22;;;16.23;75.11
70684;BME280;58263;48.146;11.440;2023-07-28T00:07:18;95110.66;;;16.10;75.15
70684;BME280;58263;48.146;11.440;2023-07-28T00:09:43;95108.97;;;16.19;75.32
70684;BME280;58263;48.146;11.440;2023-07-28T00:12:08;95114.41;;;16.14;75.91
70684;BME280;58263;48.146;11.440;2023-07-28T00:14:33;95113.03;;;16.16;75.89
70684;BME280;58263;48.146;11.440;2023-07-28T00:16:59;95113.31;;;16.15;75.91
70684;BME280;58263;48.146;11.440;2023-07-28T00:19:24;95108.16;;;16.18;76.14
70684;BME280;58263;48.146;11.440;2023-07-28T00:21:50;95100.81;;;16.24;76.15
70684;BME280;58263;48.146;11.440;2023-07-28T00:24:17;95103.25;;;16.20;75.86
70684;BME280;58263;48.146;11.440;2023-07-28T00:26:42;95105.22;;;16.10;76.32
70684;BME280;58263;48.146;11.440;2023-07-28T00:29:08;95097.22;;;15.99;76.74
70684;BME280;58263;48.146;11.440;2023-07-28T00:31:33;95099.09;;;15.99;76.63
70684;BME280;58263;48.146;11.440;2023-07-28T00:33:59;95097.41;;;16.08;76.82
70684;BME280;58263;48.146;11.440;2023-07-28T00:36:24;95101.44;;;16.11;76.70
70684;BME280;58263;48.146;11.440;2023-07-28T00:38:50;95095.19;;;16.15;76.02
70684;BME280;58263;48.146;11.440;2023-07-28T00:41:15;95101.44;;;16.11;76.88
70684;BME280;58263;48.146;11.440;2023-07-28T00:43:40;95100.00;;;16.23;75.87
70684;BME280;58263;48.146;11.440;2023-07-28T00:46:06;95102.22;;;16.16;76.63
70684;BME280;58263;48.146;11.440;2023-07-28T00:48:32;95096.81;;;16.16;76.99
70684;BME280;58263;48.146;11.440;2023-07-28T00:50:57;95094.56;;;16.23;76.88
70684;BME280;58263;48.146;11.440;2023-07-28T00:53:23;95105.50;;;16.13;76.77
70684;BME280;58263;48.146;11.440;2023-07-28T00:55:49;95105.69;;;16.22;76.48
70684;BME280;58263;48.146;11.440;2023-07-28T00:58:14;95099.38;;;16.32;76.36
70684;BME280;58263;48.146;11.440;2023-07-28T01:00:40;95098.91;;;16.25;76.28
70684;BME280;58263;48.146;11.440;2023-07-28T01:03:05;95098.28;;;16.33;76.15
70684;BME280;58263;48.146;11.440;2023-07-28T01:05:54;95099.91;;;16.34;75.84
70684;BME280;58263;48.146;11.440;2023-07-28T01:08:30;95101.56;;;16.30;76.11
70684;BME280;58263;48.146;11.440;2023-07-28T01:10:57;95103.13;;;16.36;75.29
70684;BME280;58263;48.146;11.440;2023-07-28T01:13:23;95109.38;;;16.36;75.34
70684;BME280;58263;48.146;11.440;2023-07-28T01:15:48;95102.81;;;16.43;75.64
70684;BME280;58263;48.146;11.440;2023-07-28T01:18:13;95105.06;;;16.30;76.28
70684;BME280;58263;48.146;11.440;2023-07-28T01:20:41;95099.66;;;16.30;76.09
70684;BME280;58263;48.146;11.440;2023-07-28T01:23:09;95099.13;;;16.33;76.05
70684;BME280;58263;48.146;11.440;2023-07-28T01:25:55;95097.84;;;16.20;76.44
70684;BME280;58263;48.146;11.440;2023-07-28T01:28:25;95101.34;;;16.21;76.35
70684;BME280;58263;48.146;11.440;2023-07-28T01:30:51;95101.13;;;16.17;76.71
70684;BME280;58263;48.146;11.440;2023-07-28T01:33:17;95090.09;;;16.09;77.15
70684;BME280;58263;48.146;11.440;2023-07-28T01:35:42;95093.09;;;16.02;77.22
70684;BME280;58263;48.146;11.440;2023-07-28T01:38:07;95096.41;;;15.94;77.89
70684;BME280;58263;48.146;11.440;2023-07-28T01:40:33;95103.13;;;16.01;77.03
70684;BME280;58263;48.146;11.440;2023-07-28T01:42:58;95096.69;;;15.92;77.07
70684;BME280;58263;48.146;11.440;2023-07-28T01:45:23;95101.91;;;15.83;77.87
70684;BME280;58263;48.146;11.440;2023-07-28T01:47:49;95093.69;;;15.94;77.15
70684;BME280;58263;48.146;11.440;2023-07-28T01:50:14;95107.81;;;15.85;77.29
70684;BME280;58263;48.146;11.440;2023-07-28T01:52:39;95095.91;;;15.86;77.21
70684;BME280;58263;48.146;11.440;2023-07-28T01:55:05;95092.97;;;15.78;77.59
70684;BME280;58263;48.146;11.440;2023-07-28T01:57:34;95101.91;;;15.73;77.82
70684;BME280;58263;48.146;11.440;2023-07-28T02:00:00;95100.63;;;15.65;78.39
70684;BME280;58263;48.146;11.440;2023-07-28T02:02:25;95100.63;;;15.65;78.41
70684;BME280;58263;48.146;11.440;2023-07-28T02:04:51;95097.66;;;15.62;78.65
70684;BME280;58263;48.146;11.440;2023-07-28T02:07:16;95101.13;;;15.67;78.35
70684;BME280;58263;48.146;11.440;2023-07-28T02:09:41;95101.97;;;15.63;78.06
70684;BME280;58263;48.146;11.440;2023-07-28T02:12:07;95099.28;;;15.63;78.04
70684;BME280;58263;48.146;11.440;2023-07-28T02:14:32;95106.81;;;15.66;77.80
70684;BME280;58263;48.146;11.440;2023-07-28T02:16:57;95103.59;;;15.64;78.56
70684;BME280;58263;48.146;11.440;2023-07-28T02:19:24;95101.19;;;15.57;78.29
70684;BME280;58263;48.146;11.440;2023-07-28T02:21:49;95102.00;;;15.58;78.08
70684;BME280;58263;48.146;11.440;2023-07-28T02:24:15;95102.00;;;15.58;77.92
70684;BME280;58263;48.146;11.440;2023-07-28T02:26:40;95101.97;;;15.63;77.99
70684;BME280;58263;48.146;11.440;2023-07-28T02:29:05;95102.50;;;15.60;78.05
70684;BME280;58263;48.146;11.440;2023-07-28T02:31:30;95097.75;;;15.46;78.24
70684;BME280;58263;48.146;11.440;2023-07-28T02:33:56;95088.53;;;15.47;78.12
70684;BME280;58263;48.146;11.440;2023-07-28T02:36:21;95095.53;;;15.48;77.63
70684;BME280;58263;48.146;11.440;2023-07-28T02:38:46;95100.94;;;15.53;77.67
70684;BME280;58263;48.146;11.440;2023-07-28T02:41:12;95096.03;;;15.55;77.10
70684;BME280;58263;48.146;11.440;2023-07-28T02:43:37;95095.06;;;15.41;77.34
70684;BME280;58263;48.146;11.440;2023-07-28T02:46:02;95086.94;;;15.46;77.74
70684;BME280;58263;48.146;11.440;2023-07-28T02:48:28;95090.09;;;15.59;77.23
70684;BME280;58263;48.146;11.440;2023-07-28T02:50:53;95095.53;;;15.48;76.90
70684;BME280;58263;48.146;11.440;2023-07-28T02:53:19;95092.25;;;15.57;76.86
70684;BME280;58263;48.146;11.440;2023-07-28T02:55:45;95096.16;;;15.35;77.45
70684;BME280;58263;48.146;11.440;2023-07-28T02:58:11;95096.41;;;15.44;77.50
70684;BME280;58263;48.146;11.440;2023-07-28T03:00:40;95096.16;;;15.35;77.08
70684;BME280;58263;48.146;11.440;2023-07-28T03:03:09;95094.50;;;15.44;76.92
70684;BME280;58263;48.146;11.440;2023-07-28T03:05:38;95084.84;;;15.28;77.26
70684;BME280;58263;48.146;11.440;2023-07-28T03:08:05;95086.97;;;15.31;77.36
70684;BME280;58263;48.146;11.440;2023-07-28T03:10:30;95087.25;;;15.34;77.71
70684;BME280;58263;48.146;11.440;2023-07-28T03:12:56;95091.28;;;15.32;77.76
70684;BME280;58263;48.146;11.440;2023-07-28T03:15:22;95091.31;;;15.27;77.70
70684;BME280;58263;48.146;11.440;2023-07-28T03:17:48;95092.38;;;15.31;77.73
70684;BME280;58263;48.146;11.440;2023-07-28T03:20:14;95090.50;;;15.31;77.25
70684;BME280;58263;48.146;11.440;2023-07-28T03:22:39;95092.09;;;15.32;76.90
70684;BME280;58263;48.146;11.440;2023-07-28T03:25:05;95104.31;;;15.19;77.78
70684;BME280;58263;48.146;11.440;2023-07-28T03:27:30;95094.56;;;15.29;77.28
70684;BME280;58263;48.146;11.440;2023-07-28T03:29:56;95091.28;;;15.32;76.93
70684;BME280;58263;48.146;11.440;2023-07-28T03:32:21;95097.78;;;15.31;77.00
70684;BME280;58263;48.146;11.440;2023-07-28T03:34:46;95098.91;;;15.25;77.15
70684;BME280;58263;48.146;11.440;2023-07-28T03:37:12;95107.56;;;15.21;77.19
70684;BME280;58263;48.146;11.440;2023-07-28T03:39:37;95103.75;;;15.23;77.17
70684;BME280;58263;48.146;11.440;2023-07-28T03:42:02;95107.56;;;15.21;77.09
70684;BME280;58263;48.146;11.440;2023-07-28T03:44:28;95094.84;;;15.27;76.92
70684;BME280;58263;48.146;11.440;2023-07-28T03:46:53;95097.81;;;15.26;76.85
70684;BME280;58263;48.146;11.440;2023-07-28T03:49:18;95106.44;;;15.28;76.76
70684;BME280;58263;48.146;11.440;2023-07-28T03:51:44;95098.06;;;15.24;77.28
70684;BME280;58263;48.146;11.440;2023-07-28T03:54:09;95091.59;;;15.25;77.20
70684;BME280;58263;48.146;11.440;2023-07-28T03:56:34;95103.97;;;15.36;76.57
70684;BME280;58263;48.146;11.440;2023-07-28T03:59:00;95098.81;;;15.45;76.15
70684;BME280;58263;48.146;11.440;2023-07-28T04:01:25;95100.19;;;15.37;76.62
70684;BME280;58263;48.146;11.440;2023-07-28T04:03:50;95095.81;;;15.52;76.35
70684;BME280;58263;48.146;11.440;2023-07-28T04:06:16;95088.47;;;15.58;76.03
70684;BME280;58263;48.146;11.440;2023-07-28T04:08:41;95094.44;;;15.54;76.16
70684;BME280;58263;48.146;11.440;2023-07-28T04:11:06;95102.78;;;15.58;75.70
70684;BME280;58263;48.146;11.440;2023-07-28T04:13:33;95104.91;;;15.66;75.96
70684;BME280;58263;48.146;11.440;2023-07-28T04:15:58;95102.97;;;15.77;74.85
70684;BME280;58263;48.146;11.440;2023-07-28T04:18:24;95101.09;;;15.78;75.87
70684;BME280;58263;48.146;11.440;2023-07-28T04:20:49;95100.53;;;15.76;75.48
70684;BME280;58263;48.146;11.440;2023-07-28T04:23:14;95099.69;;;15.91;76.53
70684;BME280;58263;48.146;11.440;2023-07-28T04:25:39;95098.59;;;15.92;76.22
70684;BME280;58263;48.146;11.440;2023-07-28T04:28:05;95091.72;;;16.04;75.26
70684;BME280;58263;48.146;11.440;2023-07-28T04:30:30;95102.88;;;15.98;76.00
70684;BME280;58263;48.146;11.440;2023-07-28T04:32:55;95108.78;;;16.05;76.71
70684;BME280;58263;48.146;11.440;2023-07-28T04:35:21;95108.47;;;16.12;77.49
70684;BME280;58263;48.146;11.440;2023-07-28T04:37:46;95101.94;;;16.18;77.40
70684;BME280;58263;48.146;11.440;2023-07-28T04:40:12;95105.66;;;16.27;76.46
70684;BME280;58263;48.146;11.440;2023-07-28T04:42:37;95100.00;;;16.23;76.86
70684;BME280;58263;48.146;11.440;2023-07-28T04:45:03;95109.88;;;16.38;75.74
70684;BME280;58263;48.146;11.440;2023-07-28T04:47:29;95125.50;;;16.12;76.69
70684;BME280;58263;48.146;11.440;2023-07-28T04:49:54;95114.78;;;16.36;76.23
70684;BME280;58263;48.146;11.440;2023-07-28T04:52:19;95117.59;;;16.21;76.73
70684;BME280;58263;48.146;11.440;2023-07-28T04:54:44;95118.06;;;16.33;76.57
70684;BME280;58263;48.146;11.440;2023-07-28T04:57:10;95122.06;;;16.41;75.61
70684;BME280;58263;48.146;11.440;2023-07-28T04:59:35;95126.84;;;16.49;75.98
70684;BME280;58263;48.146;11.440;2023-07-28T05:02:00;95124.41;;;16.53;75.37
70684;BME280;58263;48.146;11.440;2023-07-28T05:04:26;95126.75;;;16.65;75.59
70684;BME280;58263;48.146;11.440;2023-07-28T05:06:51;95127.22;;;16.72;74.96
70684;BME280;58263;48.146;11.440;2023-07-28T05:09:16;95128.72;;;16.83;75.91
70684;BME280;58263;48.146;11.440;2023-07-28T05:11:42;95124.34;;;16.87;75.99
70684;BME280;58263;48.146;11.440;2023-07-28T05:14:08;95130.69;;;16.78;76.01
70684;BME280;58263;48.146;11.440;2023-07-28T05:16:34;95127.63;;;16.89;75.44
70684;BME280;58263;48.146;11.440;2023-07-28T05:18:59;95127.50;;;17.00;74.27
70684;BME280;58263;48.146;11.440;2023-07-28T05:21:25;95132.88;;;17.05;73.47
70684;BME280;58263;48.146;11.440;2023-07-28T05:23:50;95139.41;;;17.04;74.74
70684;BME280;58263;48.146;11.440;2023-07-28T05:26:16;95139.81;;;17.16;73.24
70684;BME280;58263;48.146;11.440;2023-07-28T05:28:41;95138.84;;;17.31;72.96
70684;BME280;58263;48.146;11.440;2023-07-28T05:31:07;95134.69;;;17.39;72.77
70684;BME280;58263;48.146;11.440;2023-07-28T05:33:32;95131.22;;;17.57;72.02
70684;BME280;58263;48.146;11.440;2023-07-28T05:36:04;95144.88;;;17.71;71.15
70684;BME280;58263;48.146;11.440;2023-07-28T05:38:29;95144.25;;;17.80;71.56
70684;BME280;58263;48.146;11.440;2023-07-28T05:41:01;95141.28;;;17.76;70.45
70684;BME280;58263;48.146;11.440;2023-07-28T05:43:28;95146.66;;;17.81;70.52
70684;BME280;58263;48.146;11.440;2023-07-28T05:45:55;95159.00;;;17.93;70.34
70684;BME280;58263;48.146;11.440;2023-07-28T05:48:21;95157.41;;;17.92;69.94
70684;BME280;58263;48.146;11.440;2023-07-28T05:50:46;95153.03;;;17.96;69.38
70684;BME280;58263;48.146;11.440;2023-07-28T05:53:11;95147.19;;;18.02;69.96
70684;BME280;58263;48.146;11.440;2023-07-28T05:55:37;95151.63;;;18.17;69.24
70684;BME280;58263;48.146;11.440;2023-07-28T05:58:02;95168.44;;;18.19;69.86
70684;BME280;58263;48.146;11.440;2023-07-28T06:00:27;95177.06;;;18.21;69.68
70684;BME280;58263;48.146;11.440;2023-07-28T06:02:53;95179.66;;;18.13;69.95
70684;BME280;58263;48.146;11.440;2023-07-28T06:05:18;95178.13;;;18.26;70.09
70684;BME280;58263;48.146;11.440;2023-07-28T06:07:44;95174.81;;;18.29;69.34
70684;BME280;58263;48.146;11.440;2023-07-28T06:10:09;95180.25;;;18.29;69.37
70684;BME280;58263;48.146;11.440;2023-07-28T06:12:34;95182.44;;;18.46;69.11
70684;BME280;58263;48.146;11.440;2023-07-28T06:15:01;95180.16;;;18.53;69.04
70684;BME280;58263;48.146;11.440;2023-07-28T06:17:26;95185.31;;;18.54;70.12
70684;BME280;58263;48.146;11.440;2023-07-28T06:19:53;95191.47;;;18.41;70.69
70684;BME280;58263;48.146;11.440;2023-07-28T06:22:18;95195.81;;;18.61;69.15
70684;BME280;58263;48.146;11.440;2023-07-28T06:24:44;95198.50;;;18.80;69.35
70684;BME280;58263;48.146;11.440;2023-07-28T06:27:09;95194.56;;;18.86;68.48
70684;BME280;58263;48.146;11.440;2023-07-28T06:29:35;95199.38;;;18.75;66.43
70684;BME280;58263;48.146;11.440;2023-07-28T06:32:00;95192.81;;;18.96;67.22
70684;BME280;58263;48.146;11.440;2023-07-28T06:34:26;95199.63;;;19.12;66.15
70684;BME280;58263;48.146;11.440;2023-07-28T06:36:52;95202.75;;;19.19;64.98
70684;BME280;58263;48.146;11.440;2023-07-28T06:39:17;95204.50;;;19.43;64.35
70684;BME280;58263;48.146;11.440;2023-07-28T06:41:42;95198.88;;;19.67;63.01
70684;BME280;58263;48.146;11.440;2023-07-28T06:44:08;95202.44;;;19.96;62.20
70684;BME280;58263;48.146;11.440;2023-07-28T06:46:33;95208.38;;;19.98;62.13
70684;BME280;58263;48.146;11.440;2023-07-28T06:48:59;95209.88;;;20.04;61.85
70684;BME280;58263;48.146;11.440;2023-07-28T06:51:24;95202.09;;;20.25;61.63
70684;BME280;58263;48.146;11.440;2023-07-28T06:53:50;95197.72;;;20.38;59.88
70684;BME280;58263;48.146;11.440;2023-07-28T06:56:15;95201.72;;;20.68;60.86
70684;BME280;58263;48.146;11.440;2023-07-28T06:58:41;95204.78;;;20.98;60.04
70684;BME280;58263;48.146;11.440;2023-07-28T07:01:06;95207.47;;;21.12;59.04
70684;BME280;58263;48.146;11.440;2023-07-28T07:03:34;95218.00;;;21.05;57.21
70684;BME280;58263;48.146;11.440;2023-07-28T07:05:59;95209.81;;;21.05;57.88
70684;BME280;58263;48.146;11.440;2023-07-28T07:08:24;95216.00;;;20.97;58.19
70684;BME280;58263;48.146;11.440;2023-07-28T07:10:52;95212.41;;;21.33;58.45
70684;BME280;58263;48.146;11.440;2023-07-28T07:13:18;95202.97;;;21.39;57.66
70684;BME280;58263;48.146;11.440;2023-07-28T07:15:43;95200.84;;;21.36;57.69
70684;BME280;58263;48.146;11.440;2023-07-28T07:18:09;95203.19;;;21.51;57.27
70684;BME280;58263;48.146;11.440;2023-07-28T07:20:35;95207.75;;;21.65;57.33
70684;BME280;58263;48.146;11.440;2023-07-28T07:23:00;95208.81;;;21.86;57.89
70684;BME280;58263;48.146;11.440;2023-07-28T07:25:26;95200.31;;;21.88;57.01
70684;BME280;58263;48.146;11.440;2023-07-28T07:27:51;95206.75;;;21.92;56.41
70684;BME280;58263;48.146;11.440;2023-07-28T07:30:17;95207.94;;;22.17;55.44
70684;BME280;58263;48.146;11.440;2023-07-28T07:32:42;95200.81;;;21.99;54.60
70684;BME280;58263;48.146;11.440;2023-07-28T07:35:08;95199.38;;;22.01;53.91
70684;BME280;58263;48.146;11.440;2023-07-28T07:37:33;95202.47;;;22.17;53.61
70684;BME280;58263;48.146;11.440;2023-07-28T07:39:59;95199.66;;;22.57;51.82
70684;BME280;58263;48.146;11.440;2023-07-28T07:42:30;95202.38;;;23.01;51.45
70684;BME280;58263;48.146;11.440;2023-07-28T07:45:05;95208.34;;;23.03;51.07
70684;BME280;58263;48.146;11.440;2023-07-28T07:47:31;95207.69;;;22.89;49.80
70684;BME280;58263;48.146;11.440;2023-07-28T07:49:56;95204.31;;;22.66;50.23
70684;BME280;58263;48.146;11.440;2023-07-28T07:52:21;95200.81;;;22.65;50.18
70684;BME280;58263;48.146;11.440;2023-07-28T07:54:47;95217.19;;;22.91;49.90
70684;BME280;58263;48.146;11.440;2023-07-28T07:57:12;95212.88;;;22.73;50.21
70684;BME280;58263;48.146;11.440;2023-07-28T07:59:37;95210.44;;;22.62;50.33
70684;BME280;58263;48.146;11.440;2023-07-28T08:02:03;95204.34;;;22.74;51.99
70684;BME280;58263;48.146;11.440;2023-07-28T08:04:28;95205.47;;;22.65;51.17
70684;BME280;58263;48.146;11.440;2023-07-28T08:06:54;95208.66;;;22.93;51.69
70684;BME280;58263;48.146;11.440;2023-07-28T08:09:19;95208.97;;;23.09;51.93
70684;BME280;58263;48.146;11.440;2023-07-28T08:11:44;95213.66;;;23.17;50.85
70684;BME280;58263;48.146;11.440;2023-07-28T08:14:10;95209.75;;;23.44;51.02
70684;BME280;58263;48.146;11.440;2023-07-28T08:16:35;95216.63;;;23.59;51.17
70684;BME280;58263;48.146;11.440;2023-07-28T08:19:00;95212.97;;;23.85;51.13
70684;BME280;58263;48.146;11.440;2023-07-28T08:21:26;95221.16;;;24.03;50.17
70684;BME280;58263;48.146;11.440;2023-07-28T08:23:51;95211.53;;;24.47;50.29
70684;BME280;58263;48.146;11.440;2023-07-28T08:26:16;95220.59;;;24.18;49.11
70684;BME280;58263;48.146;11.440;2023-07-28T08:28:41;95221.25;;;24.15;49.81
70684;BME280;58263;48.146;11.440;2023-07-28T08:31:07;95212.19;;;24.23;49.65
70684;BME280;58263;48.146;11.440;2023-07-28T08:33:32;95211.97;;;24.79;49.63
70684;BME280;58263;48.146;11.440;2023-07-28T08:35:57;95206.22;;;24.72;49.05
70684;BME280;58263;48.146;11.440;2023-07-28T08:38:23;95217.72;;;25.08;48.95
70684;BME280;58263;48.146;11.440;2023-07-28T08:40:48;95217.19;;;24.93;49.30
70684;BME280;58263;48.146;11.440;2023-07-28T08:43:14;95211.84;;;24.97;48.74
70684;BME280;58263;48.146;11.440;2023-07-28T08:45:39;95216.50;;;25.51;48.71
70684;BME280;58263;48.146;11.440;2023-07-28T08:48:05;95215.91;;;25.45;47.49
70684;BME280;58263;48.146;11.440;2023-07-28T08:50:30;95214.69;;;25.55;46.72
70684;BME280;58263;48.146;11.440;2023-07-28T08:52:56;95212.91;;;25.84;48.00
70684;BME280;58263;48.146;11.440;2023-07-28T08:55:22;95214.25;;;25.78;46.40
70684;BME280;58263;48.146;11.440;2023-07-28T08:57:48;95216.97;;;25.53;45.12
70684;BME280;58263;48.146;11.440;2023-07-28T09:00:14;95213.88;;;25.55;47.01
70684;BME280;58263;48.146;11.440;2023-07-28T09:02:41;95218.56;;;25.54;46.17
70684;BME280;58263;48.146;11.440;2023-07-28T09:05:06;95213.28;;;25.16;46.24
70684;BME280;58263;48.146;11.440;2023-07-28T09:07:36;95220.84;;;25.52;46.33
70684;BME280;58263;48.146;11.440;2023-07-28T09:10:02;95223.97;;;25.29;46.07
70684;BME280;58263;48.146;11.440;2023-07-28T09:12:31;95233.19;;;24.91;46.20
70684;BME280;58263;48.146;11.440;2023-07-28T09:14:57;95228.22;;;25.06;47.04
70684;BME280;58263;48.146;11.440;2023-07-28T09:17:22;95220.53;;;24.99;46.39
70684;BME280;58263;48.146;11.440;2023-07-28T09:19:54;95233.50;;;25.11;47.04
70684;BME280;58263;48.146;11.440;2023-07-28T09:22:21;95232.19;;;24.96;47.25
70684;BME280;58263;48.146;11.440;2023-07-28T09:24:47;95234.56;;;24.97;46.58
70684;BME280;58263;48.146;11.440;2023-07-28T09:27:23;95230.84;;;24.81;47.02
70684;BME280;58263;48.146;11.440;2023-07-28T09:29:53;95239.41;;;25.01;47.37
70684;BME280;58263;48.146;11.440;2023-07-28T09:32:28;95230.69;;;24.98;47.60
70684;BME280;58263;48.146;11.440;2023-07-28T09:35:11;95228.31;;;24.97;46.60
70684;BME280;58263;48.146;11.440;2023-07-28T09:37:39;95228.28;;;24.76;47.38
70684;BME280;58263;48.146;11.440;2023-07-28T09:40:09;95228.13;;;24.51;47.51
70684;BME280;58263;48.146;11.440;2023-07-28T09:42:37;95227.75;;;24.83;47.99
70684;BME280;58263;48.146;11.440;2023-07-28T09:45:04;95225.56;;;24.97;47.35
70684;BME280;58263;48.146;11.440;2023-07-28T09:47:30;95230.41;;;25.12;47.37
70684;BME280;58263;48.146;11.440;2023-07-28T09:49:58;95230.94;;;25.27;47.52
70684;BME280;58263;48.146;11.440;2023-07-28T09:52:24;95229.09;;;25.64;47.10
70684;BME280;58263;48.146;11.440;2023-07-28T09:54:51;95231.41;;;25.62;45.99
70684;BME280;58263;48.146;11.440;2023-07-28T09:57:20;95210.88;;;26.06;45.46
70684;BME280;58263;48.146;11.440;2023-07-28T09:59:47;95213.16;;;26.16;44.08
70684;BME280;58263;48.146;11.440;2023-07-28T10:02:13;95213.34;;;26.60;44.06
70684;BME280;58263;48.146;11.440;2023-07-28T10:04:39;95204.63;;;26.71;44.14
70684;BME280;58263;48.146;11.440;2023-07-28T10:07:05;95210.13;;;26.58;44.71
70684;BME280;58263;48.146;11.440;2023-07-28T10:09:32;95220.94;;;26.02;44.24
70684;BME280;58263;48.146;11.440;2023-07-28T10:11:59;95219.19;;;25.97;44.09
70684;BME280;58263;48.146;11.440;2023-07-28T10:14:30;95222.03;;;25.63;44.71
70684;BME280;58263;48.146;11.440;2023-07-28T10:17:00;95214.44;;;25.60;44.74
70684;BME280;58263;48.146;11.440;2023-07-28T10:19:27;95226.41;;;25.77;44.61
70684;BME280;58263;48.146;11.440;2023-07-28T10:22:11;95218.84;;;25.86;44.82
70684;BME280;58263;48.146;11.440;2023-07-28T10:24:54;95226.09;;;25.45;45.02
70684;BME280;58263;48.146;11.440;2023-07-28T10:27:36;95229.19;;;25.43;45.04
70684;BME280;58263;48.146;11.440;2023-07-28T10:30:09;95231.59;;;25.45;45.62
70684;BME280;58263;48.146;11.440;2023-07-28T10:32:38;95234.81;;;25.47;45.97
70684;BME280;58263;48.146;11.440;2023-07-28T10:37:35;95224.53;;;25.02;45.80
70684;BME280;58263;48.146;11.440;2023-07-28T10:40:23;95235.19;;;24.82;45.48
70684;BME280;58263;48.146;11.440;2023-07-28T10:42:50;95232.81;;;25.14;45.68
70684;BME280;58263;48.146;11.440;2023-07-28T10:45:16;95234.97;;;25.08;46.17
70684;BME280;58263;48.146;11.440;2023-07-28T10:47:41;95232.31;;;25.00;46.16
70684;BME280;58263;48.146;11.440;2023-07-28T10:50:11;95241.25;;;25.30;45.68
70684;BME280;58263;48.146;11.440;2023-07-28T10:55:12;95252.16;;;25.72;44.37
70684;BME280;58263;48.146;11.440;2023-07-28T10:57:38;95246.72;;;26.09;45.20
70684;BME280;58263;48.146;11.440;2023-07-28T11:00:04;95245.00;;;26.17;44.54
70684;BME280;58263;48.146;11.440;2023-07-28T11:02:30;95246.50;;;26.27;45.28
70684;BME280;58263;48.146;11.440;2023-07-28T11:04:56;95250.81;;;26.77;42.95
70684;BME280;58263;48.146;11.440;2023-07-28T11:07:21;95246.13;;;26.78;42.49
70684;BME280;58263;48.146;11.440;2023-07-28T11:09:47;95236.94;;;26.86;43.09
70684;BME280;58263;48.146;11.440;2023-07-28T11:12:12;95246.13;;;26.53;42.36
70684;BME280;58263;48.146;11.440;2023-07-28T11:14:38;95245.69;;;26.39;42.71
70684;BME280;58263;48.146;11.440;2023-07-28T11:17:05;95237.91;;;26.16;43.27
70684;BME280;58263;48.146;11.440;2023-07-28T11:19:30;95242.00;;;25.97;44.17
70684;BME280;58263;48.146;11.440;2023-07-28T11:21:56;95235.59;;;25.93;43.27
70684;BME280;58263;48.146;11.440;2023-07-28T11:24:23;95258.94;;;25.87;44.11
70684;BME280;58263;48.146;11.440;2023-07-28T11:26:49;95242.41;;;25.62;44.27
70684;BME280;58263;48.146;11.440;2023-07-28T11:29:15;95238.25;;;25.56;44.15
70684;BME280;58263;48.146;11.440;2023-07-28T11:31:41;95238.72;;;25.58;43.68
70684;BME280;58263;48.146;11.440;2023-07-28T11:34:13;95233.50;;;25.78;44.28
70684;BME280;58263;48.146;11.440;2023-07-28T11:36:39;95240.59;;;25.79;44.21
70684;BME280;58263;48.146;11.440;2023-07-28T11:39:04;95238.78;;;25.95;43.91
70684;BME280;58263;48.146;11.440;2023-07-28T11:41:31;95236.25;;;26.89;42.31
70684;BME280;58263;48.146;11.440;2023-07-28T11:43:57;95237.06;;;26.65;41.89
70684;BME280;58263;48.146;11.440;2023-07-28T11:49:27;95226.28;;;26.72;41.50
70684;BME280;58263;48.146;11.440;2023-07-28T11:51:53;95230.03;;;26.92;40.68
70684;BME280;58263;48.146;11.440;2023-07-28T11:54:21;95234.97;;;27.27;41.14
70684;BME280;58263;48.146;11.440;2023-07-28T11:56:49;95236.34;;;27.21;40.61
70684;BME280;58263;48.146;11.440;2023-07-28T11:59:15;95238.91;;;28.86;39.39
70684;BME280;58263;48.146;11.440;2023-07-28T12:01:55;95228.72;;;28.19;38.94
70684;BME280;58263;48.146;11.440;2023-07-28T12:04:25;95237.31;;;27.86;40.15
70684;BME280;58263;48.146;11.440;2023-07-28T12:07:13;95236.56;;;28.17;39.38
70684;BME280;58263;48.146;11.440;2023-07-28T12:12:10;95222.75;;;28.69;39.26
70684;BME280;58263;48.146;11.440;2023-07-28T12:14:36;95221.88;;;30.51;35.88
70684;BME280;58263;48.146;11.440;2023-07-28T12:17:01;95225.22;;;29.91;35.96
70684;BME280;58263;48.146;11.440;2023-07-28T12:19:28;95227.41;;;30.51;34.76
70684;BME280;58263;48.146;11.440;2023-07-28T12:21:53;95223.22;;;29.68;35.86
70684;BME280;58263;48.146;11.440;2023-07-28T12:24:18;95222.97;;;29.97;36.22
70684;BME280;58263;48.146;11.440;2023-07-28T12:26:46;95224.41;;;29.91;36.57
70684;BME280;58263;48.146;11.440;2023-07-28T12:29:11;95221.38;;;29.14;37.52
70684;BME280;58263;48.146;11.440;2023-07-28T12:31:37;95217.16;;;29.00;37.81
70684;BME280;58263;48.146;11.440;2023-07-28T12:34:02;95226.44;;;30.17;36.55
70684;BME280;58263;48.146;11.440;2023-07-28T12:36:27;95224.28;;;29.41;36.55
70684;BME280;58263;48.146;11.440;2023-07-28T12:38:52;95221.56;;;31.17;34.58
70684;BME280;58263;48.146;11.440;2023-07-28T12:41:18;95218.81;;;30.87;34.11
70684;BME280;58263;48.146;11.440;2023-07-28T12:43:43;95219.63;;;32.38;32.59
70684;BME280;58263;48.146;11.440;2023-07-28T12:46:08;95228.97;;;33.41;30.23
70684;BME280;58263;48.146;11.440;2023-07-28T12:48:34;95223.16;;;34.11;29.45
70684;BME280;58263;48.146;11.440;2023-07-28T12:50:59;95220.00;;;34.20;29.01
70684;BME280;58263;48.146;11.440;2023-07-28T12:53:25;95215.19;;;32.82;30.63
70684;BME280;58263;48.146;11.440;2023-07-28T12:55:50;95220.53;;;32.53;31.74